Roanoke Rapids, NC

8:46 PM EDT on July 28, 2014 (GMT -0400)
Roanoke Rapids Lake (KNCROANO4) Elev 138 ft | 36.47 °N, 77.73 °W | Change Station

Current weather conditions updated 10 seconds ago

Clear
Clear
76.8 °F
Feels Like 79 °F
N
4.0
Wind Variable Wind from WNW
Gusts 7.0 mph

Tomorrow is forecast to be Cooler than today.

Today
High -- | Low -- °F
--% Chance of Precip.
Yesterday
High -- | Low -- °F
Precip. -- in
6:14 AM 8:20 PM
Waxing Crescent, 4% visible
Pressure 29.83 in
Visibility 10.0 miles
Clouds Clear
Heat Index 79 °F
Dew Point 65 °F
Humidity 66%
Rainfall 0.00 in
Snow Depth Not available.
UV 0 out of 12
Pollen 4.20 out of 12
Air Quality Not available.
Flu Activity Not available.
METAR KEMV 290035Z AUTO 00000KT 10SM CLR 23/16 A2983 RMK AO2

More Conditions Fewer Conditions

Pressure 29.83 in
Visibility 10.0 miles
Clouds Clear
Heat Index 79 °F
Dew Point 65 °F
Humidity 66%
Rainfall 0.00 in
Snow Depth Not available.
UV 0 out of 12
Pollen 4.20 out of 12
Air Quality Not available.
Flu Activity Not available.
METAR KEMV 290035Z AUTO 00000KT 10SM CLR 23/16 A2983 RMK AO2

More Conditions Fewer Conditions

10-Day Weather Forecast

Almanac

Astronomy

Jul. 28, 2014 Rise Set
Actual Time 6:14 AM EDT 8:20 PM EDT
Civil Twilight 5:45 AM EDT 8:48 PM EDT
Nautical Twilight 5:10 AM EDT 9:23 PM EDT
Astronomical Twilight 4:32 AM EDT 10:01 PM EDT
Moon 7:49 AM EDT (7/28) 9:05 PM EDT (7/28)
Length of Visible Light 15h 03m
Length of Day
14h 06m
Tomorrow will be 1m 38s shorter.
Waxing Crescent, 4% of the Moon is Illuminated
Today
Waxing Crescent
Aug 3
First Quarter
Aug 10
Full
Aug 17
Last Quarter
Aug 25
New

Today's Extremes

State Highs State Lows

Community

WunderPhotos

Upload Photos

1,738,571 photos uploaded!

WunderBlogs® & News

Nearby

Snow Depth

Station Depth Elevation
No new snow has been reported.

Earthquake Activity

City Distance Mag. Time & Date
No recent earthquake activity has been reported nearby.
Minimum magnitude displayed is 2.5.

Coastal Water Temperatures

Place Temperature
No Stations Reporting

Nearby Weather Stations

Station Location Temp. Heat Index Dew Point Humidity Wind Precip. Elev Updated Type
Roanoke Rapids Lake, Roanoke Rapids, NC 76.8 °F 79 °F 65 °F 66% WNW  at  4.0 mph 0.00 in / hr 138 ft 8:46 PM EDT Rapid Fire
Roanoke Rapids Lake, Gaston, NC 76.5 °F 78 °F 65 °F 67% NE  at  0.0 mph 0.00 in / hr 190 ft 8:46 PM EDT Rapid Fire
MesoWest U59A Littleton , Roanoke Rapids, NC 84 °F 84 °F 60 °F 44% WNW  at  3 mph 0.00 in / hr 324 ft 5:40 PM EDT MADIS
VADOT I-95_@_MP_0.5, 83 °F 84 °F 64 °F 53% WSW  at  0 mph 0.00 in / hr 112 ft 7:04 PM EDT MADIS
Lake Gaston, Littleton, NC 77.2 °F 79 °F 65 °F 66% NW  at  0.0 mph 0.00 in / hr 220 ft 8:46 PM EDT Normal
Brink, Emporia, VA 76.0 °F 77 °F 67 °F 73% SSW  at  1.0 mph 0.00 in / hr 240 ft 8:44 PM EDT Normal
MATTHEWS MANORWOOD @ LAKE GASTON, Macon, NC 75.9 °F 77 °F 68 °F 76% SW  at  0.0 mph 0.00 in / hr 268 ft 8:35 PM EDT Normal

Show More Stations Show Fewer Stations